sensor_id;sensor_type;location;lat;lon;timestamp;temperature;humidity
16128;DHT22;8168;49.036;7.690;2023-10-31T00:02:28;12.10;99.90
16128;DHT22;8168;49.036;7.690;2023-10-31T00:04:59;12.10;99.90
16128;DHT22;8168;49.036;7.690;2023-10-31T00:07:29;12.10;99.90
16128;DHT22;8168;49.036;7.690;2023-10-31T00:10:01;12.10;99.90
16128;DHT22;8168;49.036;7.690;2023-10-31T00:12:32;12.10;99.90
16128;DHT22;8168;49.036;7.690;2023-10-31T00:15:02;12.10;99.90
16128;DHT22;8168;49.036;7.690;2023-10-31T00:17:33;12.00;99.90
16128;DHT22;8168;49.036;7.690;2023-10-31T00:20:04;11.90;99.90
16128;DHT22;8168;49.036;7.690;2023-10-31T00:22:35;11.90;99.90
16128;DHT22;8168;49.036;7.690;2023-10-31T00:25:06;11.90;99.90
16128;DHT22;8168;49.036;7.690;2023-10-31T00:27:37;11.90;99.90
16128;DHT22;8168;49.036;7.690;2023-10-31T00:30:08;11.80;99.90
16128;DHT22;8168;49.036;7.690;2023-10-31T00:32:38;11.90;99.90
16128;DHT22;8168;49.036;7.690;2023-10-31T00:35:09;11.80;99.90
16128;DHT22;8168;49.036;7.690;2023-10-31T00:37:42;11.90;99.90
16128;DHT22;8168;49.036;7.690;2023-10-31T00:40:13;11.90;99.90
16128;DHT22;8168;49.036;7.690;2023-10-31T00:42:44;11.90;99.90
16128;DHT22;8168;49.036;7.690;2023-10-31T00:45:15;11.90;99.90
16128;DHT22;8168;49.036;7.690;2023-10-31T00:47:45;11.90;99.90
16128;DHT22;8168;49.036;7.690;2023-10-31T00:50:16;11.90;99.90
16128;DHT22;8168;49.036;7.690;2023-10-31T00:52:46;11.90;99.90
16128;DHT22;8168;49.036;7.690;2023-10-31T00:55:17;11.90;99.90
16128;DHT22;8168;49.036;7.690;2023-10-31T00:57:48;11.80;99.90
16128;DHT22;8168;49.036;7.690;2023-10-31T01:00:18;11.80;99.90
16128;DHT22;8168;49.036;7.690;2023-10-31T01:02:49;11.90;99.90
16128;DHT22;8168;49.036;7.690;2023-10-31T01:05:20;11.80;99.90
16128;DHT22;8168;49.036;7.690;2023-10-31T01:07:50;11.90;99.90
16128;DHT22;8168;49.036;7.690;2023-10-31T01:10:21;11.90;99.90
16128;DHT22;8168;49.036;7.690;2023-10-31T01:12:52;11.80;99.90
16128;DHT22;8168;49.036;7.690;2023-10-31T01:15:22;11.80;99.90
16128;DHT22;8168;49.036;7.690;2023-10-31T01:17:53;11.80;99.90
16128;DHT22;8168;49.036;7.690;2023-10-31T01:20:24;11.80;99.90
16128;DHT22;8168;49.036;7.690;2023-10-31T01:22:54;11.80;99.90
16128;DHT22;8168;49.036;7.690;2023-10-31T01:25:25;11.80;99.90
16128;DHT22;8168;49.036;7.690;2023-10-31T01:27:56;11.80;99.90
16128;DHT22;8168;49.036;7.690;2023-10-31T01:30:26;11.80;99.90
16128;DHT22;8168;49.036;7.690;2023-10-31T01:32:57;11.80;99.90
16128;DHT22;8168;49.036;7.690;2023-10-31T01:35:27;11.80;99.90
16128;DHT22;8168;49.036;7.690;2023-10-31T01:37:58;11.80;99.90
16128;DHT22;8168;49.036;7.690;2023-10-31T01:40:28;11.80;99.90
16128;DHT22;8168;49.036;7.690;2023-10-31T01:42:59;11.80;99.90
16128;DHT22;8168;49.036;7.690;2023-10-31T01:45:30;11.70;99.90
16128;DHT22;8168;49.036;7.690;2023-10-31T01:48:00;11.70;99.90
16128;DHT22;8168;49.036;7.690;2023-10-31T01:50:31;11.70;99.90
16128;DHT22;8168;49.036;7.690;2023-10-31T01:53:02;11.70;99.90
16128;DHT22;8168;49.036;7.690;2023-10-31T01:55:33;11.70;99.90
16128;DHT22;8168;49.036;7.690;2023-10-31T01:58:03;11.70;99.90
16128;DHT22;8168;49.036;7.690;2023-10-31T02:00:34;11.70;99.90
16128;DHT22;8168;49.036;7.690;2023-10-31T02:03:05;11.60;99.90
16128;DHT22;8168;49.036;7.690;2023-10-31T02:05:35;11.60;99.90
16128;DHT22;8168;49.036;7.690;2023-10-31T02:08:06;11.60;99.90
16128;DHT22;8168;49.036;7.690;2023-10-31T02:10:38;11.50;99.90
16128;DHT22;8168;49.036;7.690;2023-10-31T02:13:13;11.50;99.90
16128;DHT22;8168;49.036;7.690;2023-10-31T02:15:44;11.50;99.90
16128;DHT22;8168;49.036;7.690;2023-10-31T02:18:15;11.50;99.90
16128;DHT22;8168;49.036;7.690;2023-10-31T02:20:46;11.50;99.90
16128;DHT22;8168;49.036;7.690;2023-10-31T02:23:17;11.50;99.90
16128;DHT22;8168;49.036;7.690;2023-10-31T02:25:47;11.50;99.90
16128;DHT22;8168;49.036;7.690;2023-10-31T02:28:18;11.50;99.90
16128;DHT22;8168;49.036;7.690;2023-10-31T02:30:48;11.50;99.90
16128;DHT22;8168;49.036;7.690;2023-10-31T02:33:19;11.40;99.90
16128;DHT22;8168;49.036;7.690;2023-10-31T02:35:50;11.40;99.90
16128;DHT22;8168;49.036;7.690;2023-10-31T02:38:20;11.40;99.90
16128;DHT22;8168;49.036;7.690;2023-10-31T02:40:51;11.40;99.90
16128;DHT22;8168;49.036;7.690;2023-10-31T02:43:21;11.40;99.90
16128;DHT22;8168;49.036;7.690;2023-10-31T02:45:52;11.40;99.90
16128;DHT22;8168;49.036;7.690;2023-10-31T02:48:23;11.40;99.90
16128;DHT22;8168;49.036;7.690;2023-10-31T02:50:55;11.40;99.90
16128;DHT22;8168;49.036;7.690;2023-10-31T02:53:25;11.40;99.90
16128;DHT22;8168;49.036;7.690;2023-10-31T02:55:56;11.40;99.90
16128;DHT22;8168;49.036;7.690;2023-10-31T02:58:26;11.40;99.90
16128;DHT22;8168;49.036;7.690;2023-10-31T03:00:57;11.40;99.90
16128;DHT22;8168;49.036;7.690;2023-10-31T03:03:28;11.40;99.90
16128;DHT22;8168;49.036;7.690;2023-10-31T03:05:58;11.40;99.90
16128;DHT22;8168;49.036;7.690;2023-10-31T03:08:29;11.40;99.90
16128;DHT22;8168;49.036;7.690;2023-10-31T03:10:59;11.40;99.90
16128;DHT22;8168;49.036;7.690;2023-10-31T03:13:30;11.40;99.90
16128;DHT22;8168;49.036;7.690;2023-10-31T03:16:01;11.40;99.90
16128;DHT22;8168;49.036;7.690;2023-10-31T03:18:31;11.40;99.90
16128;DHT22;8168;49.036;7.690;2023-10-31T03:21:02;11.40;99.90
16128;DHT22;8168;49.036;7.690;2023-10-31T03:23:33;11.40;99.90
16128;DHT22;8168;49.036;7.690;2023-10-31T03:26:03;11.40;99.90
16128;DHT22;8168;49.036;7.690;2023-10-31T03:28:34;11.40;99.90
16128;DHT22;8168;49.036;7.690;2023-10-31T03:31:05;11.30;99.90
16128;DHT22;8168;49.036;7.690;2023-10-31T03:33:35;11.30;99.90
16128;DHT22;8168;49.036;7.690;2023-10-31T03:36:06;11.30;99.90
16128;DHT22;8168;49.036;7.690;2023-10-31T03:38:37;11.40;99.90
16128;DHT22;8168;49.036;7.690;2023-10-31T03:41:08;11.40;99.90
16128;DHT22;8168;49.036;7.690;2023-10-31T03:43:38;11.40;99.90
16128;DHT22;8168;49.036;7.690;2023-10-31T03:46:09;11.40;99.90
16128;DHT22;8168;49.036;7.690;2023-10-31T03:48:42;11.30;99.90
16128;DHT22;8168;49.036;7.690;2023-10-31T03:51:12;11.30;99.90
16128;DHT22;8168;49.036;7.690;2023-10-31T03:53:43;11.30;99.90
16128;DHT22;8168;49.036;7.690;2023-10-31T03:56:13;11.30;99.90
16128;DHT22;8168;49.036;7.690;2023-10-31T03:58:44;11.30;99.90
16128;DHT22;8168;49.036;7.690;2023-10-31T04:01:15;11.30;99.90
16128;DHT22;8168;49.036;7.690;2023-10-31T04:03:46;11.30;99.90
16128;DHT22;8168;49.036;7.690;2023-10-31T04:06:16;11.30;99.90
16128;DHT22;8168;49.036;7.690;2023-10-31T04:08:47;11.30;99.90
16128;DHT22;8168;49.036;7.690;2023-10-31T04:11:18;11.30;99.90
16128;DHT22;8168;49.036;7.690;2023-10-31T04:13:48;11.20;99.90
16128;DHT22;8168;49.036;7.690;2023-10-31T04:16:19;11.30;99.90
16128;DHT22;8168;49.036;7.690;2023-10-31T04:18:49;11.30;99.90
16128;DHT22;8168;49.036;7.690;2023-10-31T04:21:20;11.30;99.90
16128;DHT22;8168;49.036;7.690;2023-10-31T04:23:50;11.30;99.90
16128;DHT22;8168;49.036;7.690;2023-10-31T04:26:21;11.30;99.90
16128;DHT22;8168;49.036;7.690;2023-10-31T04:28:52;11.20;99.90
16128;DHT22;8168;49.036;7.690;2023-10-31T04:31:22;11.20;99.90
16128;DHT22;8168;49.036;7.690;2023-10-31T04:33:53;11.20;99.90
16128;DHT22;8168;49.036;7.690;2023-10-31T04:36:24;11.20;99.90
16128;DHT22;8168;49.036;7.690;2023-10-31T04:38:54;11.20;99.90
16128;DHT22;8168;49.036;7.690;2023-10-31T04:41:25;11.20;99.90
16128;DHT22;8168;49.036;7.690;2023-10-31T04:43:56;11.10;99.90
16128;DHT22;8168;49.036;7.690;2023-10-31T04:46:26;11.20;99.90
16128;DHT22;8168;49.036;7.690;2023-10-31T04:48:57;11.20;99.90
16128;DHT22;8168;49.036;7.690;2023-10-31T04:51:33;11.10;99.90
16128;DHT22;8168;49.036;7.690;2023-10-31T04:54:04;11.20;99.90
16128;DHT22;8168;49.036;7.690;2023-10-31T04:56:36;11.20;99.90
16128;DHT22;8168;49.036;7.690;2023-10-31T04:59:06;11.20;99.90
16128;DHT22;8168;49.036;7.690;2023-10-31T05:01:37;11.20;99.90
16128;DHT22;8168;49.036;7.690;2023-10-31T05:04:07;11.20;99.90
16128;DHT22;8168;49.036;7.690;2023-10-31T05:06:38;11.20;99.90
16128;DHT22;8168;49.036;7.690;2023-10-31T05:09:12;11.20;99.90
16128;DHT22;8168;49.036;7.690;2023-10-31T05:11:43;11.50;99.90
16128;DHT22;8168;49.036;7.690;2023-10-31T05:14:14;11.20;99.90
16128;DHT22;8168;49.036;7.690;2023-10-31T05:16:44;11.20;99.90
16128;DHT22;8168;49.036;7.690;2023-10-31T05:19:15;11.20;99.90
16128;DHT22;8168;49.036;7.690;2023-10-31T05:21:46;11.20;99.90
16128;DHT22;8168;49.036;7.690;2023-10-31T05:24:16;11.20;99.90
16128;DHT22;8168;49.036;7.690;2023-10-31T05:26:47;11.20;99.90
16128;DHT22;8168;49.036;7.690;2023-10-31T05:29:17;11.20;99.90
16128;DHT22;8168;49.036;7.690;2023-10-31T05:31:48;11.20;99.90
16128;DHT22;8168;49.036;7.690;2023-10-31T05:34:19;11.20;99.90
16128;DHT22;8168;49.036;7.690;2023-10-31T05:36:49;11.20;99.90
16128;DHT22;8168;49.036;7.690;2023-10-31T05:39:20;11.20;99.90
16128;DHT22;8168;49.036;7.690;2023-10-31T05:41:50;11.10;99.90
16128;DHT22;8168;49.036;7.690;2023-10-31T05:44:21;11.10;99.90
16128;DHT22;8168;49.036;7.690;2023-10-31T05:46:52;11.10;99.90
16128;DHT22;8168;49.036;7.690;2023-10-31T05:49:22;11.10;99.90
16128;DHT22;8168;49.036;7.690;2023-10-31T05:51:53;11.10;99.90
16128;DHT22;8168;49.036;7.690;2023-10-31T05:54:23;11.10;99.90
16128;DHT22;8168;49.036;7.690;2023-10-31T05:56:56;11.10;99.90
16128;DHT22;8168;49.036;7.690;2023-10-31T05:59:26;11.00;99.90
16128;DHT22;8168;49.036;7.690;2023-10-31T06:01:57;11.00;99.90
16128;DHT22;8168;49.036;7.690;2023-10-31T06:04:28;11.00;99.90
16128;DHT22;8168;49.036;7.690;2023-10-31T06:06:58;11.00;99.90
16128;DHT22;8168;49.036;7.690;2023-10-31T06:09:29;11.00;99.90
16128;DHT22;8168;49.036;7.690;2023-10-31T06:12:00;11.00;99.90
16128;DHT22;8168;49.036;7.690;2023-10-31T06:14:31;11.00;99.90
16128;DHT22;8168;49.036;7.690;2023-10-31T06:17:02;11.00;99.90
16128;DHT22;8168;49.036;7.690;2023-10-31T06:19:36;10.90;99.90
16128;DHT22;8168;49.036;7.690;2023-10-31T06:22:07;11.00;99.90
16128;DHT22;8168;49.036;7.690;2023-10-31T06:24:38;11.00;99.90
16128;DHT22;8168;49.036;7.690;2023-10-31T06:27:08;11.00;99.90
16128;DHT22;8168;49.036;7.690;2023-10-31T06:29:39;11.00;99.90
16128;DHT22;8168;49.036;7.690;2023-10-31T06:32:09;11.00;99.90
16128;DHT22;8168;49.036;7.690;2023-10-31T06:34:40;11.00;99.90
16128;DHT22;8168;49.036;7.690;2023-10-31T06:37:10;11.00;99.90
16128;DHT22;8168;49.036;7.690;2023-10-31T06:39:41;11.10;99.90
16128;DHT22;8168;49.036;7.690;2023-10-31T06:42:12;11.00;99.90
16128;DHT22;8168;49.036;7.690;2023-10-31T06:44:42;11.00;99.90
16128;DHT22;8168;49.036;7.690;2023-10-31T06:47:13;11.10;99.90
16128;DHT22;8168;49.036;7.690;2023-10-31T06:49:43;11.10;99.90
16128;DHT22;8168;49.036;7.690;2023-10-31T06:52:14;11.10;99.90
16128;DHT22;8168;49.036;7.690;2023-10-31T06:54:45;11.00;99.90
16128;DHT22;8168;49.036;7.690;2023-10-31T06:57:15;11.10;99.90
16128;DHT22;8168;49.036;7.690;2023-10-31T06:59:46;11.10;99.90
16128;DHT22;8168;49.036;7.690;2023-10-31T07:02:17;11.10;99.90
16128;DHT22;8168;49.036;7.690;2023-10-31T07:04:47;13.80;99.90
16128;DHT22;8168;49.036;7.690;2023-10-31T07:07:18;11.10;99.90
16128;DHT22;8168;49.036;7.690;2023-10-31T07:09:49;11.10;99.90
16128;DHT22;8168;49.036;7.690;2023-10-31T07:12:19;11.10;99.90
16128;DHT22;8168;49.036;7.690;2023-10-31T07:14:50;11.10;99.90
16128;DHT22;8168;49.036;7.690;2023-10-31T07:17:21;11.10;99.90
16128;DHT22;8168;49.036;7.690;2023-10-31T07:19:51;11.00;99.90
16128;DHT22;8168;49.036;7.690;2023-10-31T07:22:22;11.10;99.90
16128;DHT22;8168;49.036;7.690;2023-10-31T07:24:55;11.10;99.90
16128;DHT22;8168;49.036;7.690;2023-10-31T07:27:28;11.10;99.90
16128;DHT22;8168;49.036;7.690;2023-10-31T07:29:58;11.10;99.90
16128;DHT22;8168;49.036;7.690;2023-10-31T07:32:29;11.10;99.90
16128;DHT22;8168;49.036;7.690;2023-10-31T07:34:59;11.20;99.90
16128;DHT22;8168;49.036;7.690;2023-10-31T07:37:30;11.20;99.90
16128;DHT22;8168;49.036;7.690;2023-10-31T07:40:01;11.20;99.90
16128;DHT22;8168;49.036;7.690;2023-10-31T07:42:31;11.20;99.90
16128;DHT22;8168;49.036;7.690;2023-10-31T07:45:02;11.30;99.90
16128;DHT22;8168;49.036;7.690;2023-10-31T07:47:33;11.20;99.90
16128;DHT22;8168;49.036;7.690;2023-10-31T07:50:04;11.30;99.90
16128;DHT22;8168;49.036;7.690;2023-10-31T07:52:35;11.20;99.90
16128;DHT22;8168;49.036;7.690;2023-10-31T07:55:06;11.30;99.90
16128;DHT22;8168;49.036;7.690;2023-10-31T07:57:37;11.30;99.90
16128;DHT22;8168;49.036;7.690;2023-10-31T08:00:13;11.30;99.90
16128;DHT22;8168;49.036;7.690;2023-10-31T08:02:44;11.40;99.90
16128;DHT22;8168;49.036;7.690;2023-10-31T08:05:14;11.40;99.90
16128;DHT22;8168;49.036;7.690;2023-10-31T08:07:46;11.40;99.90
16128;DHT22;8168;49.036;7.690;2023-10-31T08:10:16;11.40;99.90
16128;DHT22;8168;49.036;7.690;2023-10-31T08:12:47;11.40;99.90
16128;DHT22;8168;49.036;7.690;2023-10-31T08:15:17;11.40;99.90
16128;DHT22;8168;49.036;7.690;2023-10-31T08:17:48;11.40;99.90
16128;DHT22;8168;49.036;7.690;2023-10-31T08:20:19;11.40;99.90
16128;DHT22;8168;49.036;7.690;2023-10-31T08:22:49;11.40;99.90
16128;DHT22;8168;49.036;7.690;2023-10-31T08:25:20;11.50;99.90
16128;DHT22;8168;49.036;7.690;2023-10-31T08:27:50;11.50;99.90
16128;DHT22;8168;49.036;7.690;2023-10-31T08:30:21;11.50;99.90
16128;DHT22;8168;49.036;7.690;2023-10-31T08:32:52;11.50;99.90
16128;DHT22;8168;49.036;7.690;2023-10-31T08:35:24;11.60;99.90
16128;DHT22;8168;49.036;7.690;2023-10-31T08:37:54;11.60;99.90
16128;DHT22;8168;49.036;7.690;2023-10-31T08:40:25;11.60;99.90
16128;DHT22;8168;49.036;7.690;2023-10-31T08:42:56;11.70;99.90
16128;DHT22;8168;49.036;7.690;2023-10-31T08:45:27;11.70;99.90
16128;DHT22;8168;49.036;7.690;2023-10-31T08:47:58;11.70;99.90
16128;DHT22;8168;49.036;7.690;2023-10-31T08:50:28;11.70;99.90
16128;DHT22;8168;49.036;7.690;2023-10-31T08:52:59;11.80;99.90
16128;DHT22;8168;49.036;7.690;2023-10-31T08:55:29;11.80;99.90
16128;DHT22;8168;49.036;7.690;2023-10-31T08:58:00;11.80;99.90
16128;DHT22;8168;49.036;7.690;2023-10-31T09:00:31;11.80;99.90
16128;DHT22;8168;49.036;7.690;2023-10-31T09:03:01;11.80;99.90
16128;DHT22;8168;49.036;7.690;2023-10-31T09:05:32;11.80;99.90
16128;DHT22;8168;49.036;7.690;2023-10-31T09:08:02;11.80;99.90
16128;DHT22;8168;49.036;7.690;2023-10-31T09:10:36;11.80;99.90
16128;DHT22;8168;49.036;7.690;2023-10-31T09:13:08;11.90;99.90
16128;DHT22;8168;49.036;7.690;2023-10-31T09:15:40;11.90;99.90
16128;DHT22;8168;49.036;7.690;2023-10-31T09:18:11;11.90;99.90
16128;DHT22;8168;49.036;7.690;2023-10-31T09:20:43;11.90;99.90
16128;DHT22;8168;49.036;7.690;2023-10-31T09:23:13;11.90;99.90
16128;DHT22;8168;49.036;7.690;2023-10-31T09:25:45;11.90;99.90
16128;DHT22;8168;49.036;7.690;2023-10-31T09:28:15;11.90;99.90
16128;DHT22;8168;49.036;7.690;2023-10-31T09:30:46;12.00;99.90
16128;DHT22;8168;49.036;7.690;2023-10-31T09:33:16;12.00;99.90
16128;DHT22;8168;49.036;7.690;2023-10-31T09:35:47;12.00;99.90
16128;DHT22;8168;49.036;7.690;2023-10-31T09:38:18;12.00;99.90
16128;DHT22;8168;49.036;7.690;2023-10-31T09:40:48;12.10;99.90
16128;DHT22;8168;49.036;7.690;2023-10-31T09:43:20;12.10;99.90
16128;DHT22;8168;49.036;7.690;2023-10-31T09:45:52;12.10;99.90
16128;DHT22;8168;49.036;7.690;2023-10-31T09:48:23;12.20;99.90
16128;DHT22;8168;49.036;7.690;2023-10-31T09:50:53;12.20;99.90
16128;DHT22;8168;49.036;7.690;2023-10-31T09:53:24;12.20;99.90
16128;DHT22;8168;49.036;7.690;2023-10-31T09:55:55;11.30;99.90
16128;DHT22;8168;49.036;7.690;2023-10-31T09:58:27;12.20;99.90
16128;DHT22;8168;49.036;7.690;2023-10-31T10:00:58;12.20;99.90
16128;DHT22;8168;49.036;7.690;2023-10-31T10:03:29;12.20;99.90
16128;DHT22;8168;49.036;7.690;2023-10-31T10:06:01;12.20;99.90
16128;DHT22;8168;49.036;7.690;2023-10-31T10:08:37;12.20;99.90
16128;DHT22;8168;49.036;7.690;2023-10-31T10:11:08;12.20;99.90
16128;DHT22;8168;49.036;7.690;2023-10-31T10:13:39;12.20;99.90
16128;DHT22;8168;49.036;7.690;2023-10-31T10:16:10;12.20;99.90
16128;DHT22;8168;49.036;7.690;2023-10-31T10:18:41;12.20;99.90
16128;DHT22;8168;49.036;7.690;2023-10-31T10:21:11;12.30;99.90
16128;DHT22;8168;49.036;7.690;2023-10-31T10:23:42;12.30;99.90
16128;DHT22;8168;49.036;7.690;2023-10-31T10:26:13;13.40;99.90
16128;DHT22;8168;49.036;7.690;2023-10-31T10:28:46;12.40;99.90
16128;DHT22;8168;49.036;7.690;2023-10-31T10:31:18;12.40;99.90
16128;DHT22;8168;49.036;7.690;2023-10-31T10:33:49;12.50;99.90
16128;DHT22;8168;49.036;7.690;2023-10-31T10:36:20;12.50;99.90
16128;DHT22;8168;49.036;7.690;2023-10-31T10:38:56;12.60;99.90
16128;DHT22;8168;49.036;7.690;2023-10-31T10:41:28;12.60;99.90
16128;DHT22;8168;49.036;7.690;2023-10-31T10:44:06;12.70;99.90
16128;DHT22;8168;49.036;7.690;2023-10-31T10:46:39;12.70;99.90
16128;DHT22;8168;49.036;7.690;2023-10-31T10:49:11;12.70;99.90
16128;DHT22;8168;49.036;7.690;2023-10-31T10:52:27;12.70;99.90
16128;DHT22;8168;49.036;7.690;2023-10-31T10:55:08;12.70;99.90
16128;DHT22;8168;49.036;7.690;2023-10-31T10:58:03;12.80;99.90
16128;DHT22;8168;49.036;7.690;2023-10-31T11:00:36;12.90;99.90
16128;DHT22;8168;49.036;7.690;2023-10-31T11:03:07;13.00;99.90
16128;DHT22;8168;49.036;7.690;2023-10-31T11:05:38;13.10;99.90
16128;DHT22;8168;49.036;7.690;2023-10-31T11:08:10;13.10;99.90
16128;DHT22;8168;49.036;7.690;2023-10-31T11:10:42;13.20;99.90
16128;DHT22;8168;49.036;7.690;2023-10-31T11:13:14;13.10;99.90
16128;DHT22;8168;49.036;7.690;2023-10-31T11:15:44;13.10;99.90
16128;DHT22;8168;49.036;7.690;2023-10-31T11:18:16;13.10;99.90
16128;DHT22;8168;49.036;7.690;2023-10-31T11:20:48;13.10;99.90
16128;DHT22;8168;49.036;7.690;2023-10-31T11:23:19;13.00;99.90
16128;DHT22;8168;49.036;7.690;2023-10-31T11:25:50;13.00;99.90
16128;DHT22;8168;49.036;7.690;2023-10-31T11:28:25;12.90;99.90
16128;DHT22;8168;49.036;7.690;2023-10-31T11:30:57;12.80;99.90
16128;DHT22;8168;49.036;7.690;2023-10-31T11:33:31;12.80;99.90
16128;DHT22;8168;49.036;7.690;2023-10-31T11:36:03;12.80;99.90
16128;DHT22;8168;49.036;7.690;2023-10-31T11:38:38;12.80;99.90
16128;DHT22;8168;49.036;7.690;2023-10-31T11:41:09;12.80;99.90
16128;DHT22;8168;49.036;7.690;2023-10-31T11:43:51;12.90;99.90
16128;DHT22;8168;49.036;7.690;2023-10-31T11:46:23;12.80;99.90
16128;DHT22;8168;49.036;7.690;2023-10-31T11:48:59;12.90;99.90
16128;DHT22;8168;49.036;7.690;2023-10-31T11:51:31;13.10;99.90
16128;DHT22;8168;49.036;7.690;2023-10-31T11:54:02;13.20;99.90
16128;DHT22;8168;49.036;7.690;2023-10-31T11:56:33;13.20;99.90
16128;DHT22;8168;49.036;7.690;2023-10-31T11:59:04;13.30;99.90
16128;DHT22;8168;49.036;7.690;2023-10-31T12:01:46;13.30;99.90
16128;DHT22;8168;49.036;7.690;2023-10-31T12:04:23;13.30;99.90
16128;DHT22;8168;49.036;7.690;2023-10-31T12:07:00;13.30;99.90
16128;DHT22;8168;49.036;7.690;2023-10-31T12:09:31;13.30;99.90
16128;DHT22;8168;49.036;7.690;2023-10-31T12:12:02;13.30;99.90
16128;DHT22;8168;49.036;7.690;2023-10-31T12:14:33;13.20;99.90
16128;DHT22;8168;49.036;7.690;2023-10-31T12:17:04;13.20;99.90
16128;DHT22;8168;49.036;7.690;2023-10-31T12:19:35;13.30;99.90
16128;DHT22;8168;49.036;7.690;2023-10-31T12:22:14;13.30;99.90
16128;DHT22;8168;49.036;7.690;2023-10-31T12:24:44;13.30;99.90
16128;DHT22;8168;49.036;7.690;2023-10-31T12:27:16;13.30;99.90
16128;DHT22;8168;49.036;7.690;2023-10-31T12:29:47;13.30;99.90
16128;DHT22;8168;49.036;7.690;2023-10-31T12:32:21;13.40;99.90
16128;DHT22;8168;49.036;7.690;2023-10-31T12:34:52;13.30;99.90
16128;DHT22;8168;49.036;7.690;2023-10-31T12:37:23;13.30;99.90
16128;DHT22;8168;49.036;7.690;2023-10-31T12:39:54;13.30;99.90
16128;DHT22;8168;49.036;7.690;2023-10-31T12:42:24;13.30;99.90
16128;DHT22;8168;49.036;7.690;2023-10-31T12:44:59;13.30;99.90
16128;DHT22;8168;49.036;7.690;2023-10-31T12:47:30;13.30;99.90
16128;DHT22;8168;49.036;7.690;2023-10-31T12:50:13;13.30;99.90
16128;DHT22;8168;49.036;7.690;2023-10-31T12:52:53;13.20;99.90
16128;DHT22;8168;49.036;7.690;2023-10-31T12:55:26;13.20;99.90
16128;DHT22;8168;49.036;7.690;2023-10-31T12:57:58;13.20;99.90
16128;DHT22;8168;49.036;7.690;2023-10-31T13:00:33;13.30;99.90
16128;DHT22;8168;49.036;7.690;2023-10-31T13:03:06;13.10;99.90
16128;DHT22;8168;49.036;7.690;2023-10-31T13:05:37;13.10;99.90
16128;DHT22;8168;49.036;7.690;2023-10-31T13:08:14;13.20;99.90
16128;DHT22;8168;49.036;7.690;2023-10-31T13:10:46;13.10;99.90
16128;DHT22;8168;49.036;7.690;2023-10-31T13:13:16;13.20;99.90
16128;DHT22;8168;49.036;7.690;2023-10-31T13:15:47;13.10;99.90
16128;DHT22;8168;49.036;7.690;2023-10-31T13:18:17;13.10;99.90
16128;DHT22;8168;49.036;7.690;2023-10-31T13:20:48;13.10;99.90
16128;DHT22;8168;49.036;7.690;2023-10-31T13:23:20;13.10;99.90
16128;DHT22;8168;49.036;7.690;2023-10-31T13:25:50;13.10;99.90
16128;DHT22;8168;49.036;7.690;2023-10-31T13:28:21;13.10;99.90
16128;DHT22;8168;49.036;7.690;2023-10-31T13:30:51;13.10;99.90
16128;DHT22;8168;49.036;7.690;2023-10-31T13:33:22;13.00;99.90
16128;DHT22;8168;49.036;7.690;2023-10-31T13:35:53;13.00;99.90
16128;DHT22;8168;49.036;7.690;2023-10-31T13:38:23;13.00;99.90
16128;DHT22;8168;49.036;7.690;2023-10-31T13:40:54;13.10;99.90
16128;DHT22;8168;49.036;7.690;2023-10-31T13:43:24;13.10;99.90
16128;DHT22;8168;49.036;7.690;2023-10-31T13:45:55;13.20;99.90
16128;DHT22;8168;49.036;7.690;2023-10-31T13:48:26;13.20;99.90
16128;DHT22;8168;49.036;7.690;2023-10-31T13:50:56;13.20;99.90
16128;DHT22;8168;49.036;7.690;2023-10-31T13:53:27;13.20;99.90
16128;DHT22;8168;49.036;7.690;2023-10-31T13:55:57;13.20;99.90
16128;DHT22;8168;49.036;7.690;2023-10-31T13:58:28;13.20;99.90
16128;DHT22;8168;49.036;7.690;2023-10-31T14:00:58;13.20;99.90
16128;DHT22;8168;49.036;7.690;2023-10-31T14:03:29;13.20;99.90
16128;DHT22;8168;49.036;7.690;2023-10-31T14:06:01;13.10;99.90
16128;DHT22;8168;49.036;7.690;2023-10-31T14:08:31;13.10;99.90
16128;DHT22;8168;49.036;7.690;2023-10-31T14:11:02;13.10;99.90
16128;DHT22;8168;49.036;7.690;2023-10-31T14:13:35;13.10;99.90
16128;DHT22;8168;49.036;7.690;2023-10-31T14:16:06;13.10;99.90
16128;DHT22;8168;49.036;7.690;2023-10-31T14:18:36;13.00;99.90
16128;DHT22;8168;49.036;7.690;2023-10-31T14:21:07;12.90;99.90
16128;DHT22;8168;49.036;7.690;2023-10-31T14:23:38;13.00;99.90
16128;DHT22;8168;49.036;7.690;2023-10-31T14:26:08;13.00;99.90
16128;DHT22;8168;49.036;7.690;2023-10-31T14:28:39;13.00;99.90
16128;DHT22;8168;49.036;7.690;2023-10-31T14:31:10;13.00;99.90
16128;DHT22;8168;49.036;7.690;2023-10-31T14:33:41;13.00;99.90
16128;DHT22;8168;49.036;7.690;2023-10-31T14:36:12;13.00;99.90
16128;DHT22;8168;49.036;7.690;2023-10-31T14:38:43;13.00;99.90
16128;DHT22;8168;49.036;7.690;2023-10-31T14:41:14;13.00;99.90
16128;DHT22;8168;49.036;7.690;2023-10-31T14:43:45;13.00;99.90
16128;DHT22;8168;49.036;7.690;2023-10-31T14:46:15;13.00;99.90
16128;DHT22;8168;49.036;7.690;2023-10-31T14:48:46;13.00;99.90
16128;DHT22;8168;49.036;7.690;2023-10-31T14:51:16;13.00;99.90
16128;DHT22;8168;49.036;7.690;2023-10-31T14:53:47;13.00;99.90
16128;DHT22;8168;49.036;7.690;2023-10-31T14:56:19;13.00;99.90
16128;DHT22;8168;49.036;7.690;2023-10-31T14:58:51;13.00;99.90
16128;DHT22;8168;49.036;7.690;2023-10-31T15:01:21;13.00;99.90
16128;DHT22;8168;49.036;7.690;2023-10-31T15:03:52;12.90;99.90
16128;DHT22;8168;49.036;7.690;2023-10-31T15:06:22;12.90;99.90
16128;DHT22;8168;49.036;7.690;2023-10-31T15:08:53;12.90;99.90
16128;DHT22;8168;49.036;7.690;2023-10-31T15:11:24;12.80;99.90
16128;DHT22;8168;49.036;7.690;2023-10-31T15:13:55;12.70;99.90
16128;DHT22;8168;49.036;7.690;2023-10-31T15:16:26;12.70;99.90
16128;DHT22;8168;49.036;7.690;2023-10-31T15:18:59;12.70;99.90
16128;DHT22;8168;49.036;7.690;2023-10-31T15:21:30;12.70;99.90
16128;DHT22;8168;49.036;7.690;2023-10-31T15:24:01;12.70;99.90
16128;DHT22;8168;49.036;7.690;2023-10-31T15:26:32;12.70;99.90
16128;DHT22;8168;49.036;7.690;2023-10-31T15:29:02;12.70;99.90
16128;DHT22;8168;49.036;7.690;2023-10-31T15:31:33;12.70;99.90
16128;DHT22;8168;49.036;7.690;2023-10-31T15:34:04;12.80;99.90
16128;DHT22;8168;49.036;7.690;2023-10-31T15:36:34;12.70;99.90
16128;DHT22;8168;49.036;7.690;2023-10-31T15:39:05;12.70;99.90
16128;DHT22;8168;49.036;7.690;2023-10-31T15:41:36;12.70;99.90
16128;DHT22;8168;49.036;7.690;2023-10-31T15:44:07;12.70;99.90
16128;DHT22;8168;49.036;7.690;2023-10-31T15:46:38;12.60;99.90
16128;DHT22;8168;49.036;7.690;2023-10-31T15:49:08;12.60;99.90
16128;DHT22;8168;49.036;7.690;2023-10-31T15:51:40;12.60;99.90
16128;DHT22;8168;49.036;7.690;2023-10-31T15:54:10;12.60;99.90
16128;DHT22;8168;49.036;7.690;2023-10-31T15:56:41;12.60;99.90
16128;DHT22;8168;49.036;7.690;2023-10-31T15:59:12;12.60;99.90
16128;DHT22;8168;49.036;7.690;2023-10-31T16:01:43;12.60;99.90
16128;DHT22;8168;49.036;7.690;2023-10-31T16:04:14;12.60;99.90
16128;DHT22;8168;49.036;7.690;2023-10-31T16:06:44;12.60;99.90
16128;DHT22;8168;49.036;7.690;2023-10-31T16:09:15;12.60;99.90
16128;DHT22;8168;49.036;7.690;2023-10-31T16:11:46;12.60;99.90